Data for 11/28/2013

Time Sea-Level Adjusted Pressure Absolute Pressure Temperature Relative Humidity Dew Point   
(mb) (inHg) (mb) (inHg) (C) (F) (%) (C) (F)
00:05 1020 30.12 849 25.07 -0.4 31.3 68 -5.6 21.9
00:10 1020 30.12 849 25.07 -0.5 31.1 68 -5.8 21.6
00:15 1020 30.12 849 25.07 -0.5 31.1 67 -5.8 21.5
00:20 1020 30.12 849 25.07 -0.4 31.2 68 -5.7 21.7
00:25 1020 30.12 849 25.07 -0.5 31.2 67 -5.8 21.5
00:30 1020 30.12 849 25.07 -0.4 31.3 66 -5.9 21.4
00:35 1020 30.12 849 25.07 -0.4 31.4 67 -5.8 21.6
00:40 1020 30.12 849 25.07 -0.4 31.2 67 -5.8 21.5
00:45 1020 30.12 849 25.07 -0.5 31.1 67 -5.9 21.4
00:50 1020 30.12 849 25.07 -0.6 30.9 68 -5.9 21.4
00:55 1020 30.12 849 25.07 -0.7 30.7 67 -6 21.2
01:00 1020 30.12 849 25.07 -0.8 30.6 67 -6.1 21
01:05 1020 30.12 849 25.07 -0.8 30.6 67 -6.2 20.9
01:10 1020 30.12 849 25.07 -0.8 30.5 67 -6.1 21
01:15 1020 30.12 849 25.07 -0.8 30.6 67 -6.1 21
01:20 1020 30.12 849 25.07 -0.8 30.6 67 -6.2 20.9
01:25 1020 30.12 849 25.07 -0.7 30.7 67 -6.2 20.9
01:30 1020 30.12 849 25.07 -0.7 30.8 66 -6.2 20.8
01:35 1020 30.12 849 25.07 -0.7 30.8 66 -6.3 20.6
01:40 1020 30.12 849 25.07 -0.6 31 65 -6.3 20.7
01:45 1020 30.12 849 25.07 -0.6 31 65 -6.4 20.5
01:50 1020 30.12 849 25.07 -0.5 31 65 -6.3 20.7
01:55 1020 30.12 849 25.07 -0.6 30.9 65 -6.4 20.5
02:00 1020 30.12 849 25.07 -0.6 30.9 65 -6.4 20.4
02:05 1020 30.12 849 25.07 -0.5 31 65 -6.3 20.6
02:10 1020 30.12 849 25.07 -0.6 31 65 -6.4 20.4
02:15 1020 30.12 849 25.07 -0.7 30.8 65 -6.4 20.4
02:20 1020 30.12 849 25.07 -0.8 30.6 66 -6.4 20.5
02:25 1020 30.12 849 25.07 -0.9 30.4 66 -6.4 20.4
02:30 1020 30.12 849 25.07 -0.9 30.4 65 -6.6 20.2
02:35 1020 30.12 849 25.07 -0.8 30.5 65 -6.6 20.2
02:40 1020 30.12 849 25.07 -0.9 30.4 66 -6.5 20.3
02:45 1020 30.12 849 25.07 -1.1 30.1 66 -6.7 20
02:50 1020 30.12 849 25.07 -1.1 30 66 -6.7 20
02:55 1020 30.12 849 25.07 -1.1 30.1 66 -6.6 20.1
03:00 1020 30.12 849 25.07 -1.1 30.1 66 -6.6 20.2
03:05 1020 30.12 849 25.07 -1.1 30 66 -6.7 20
03:10 1020 30.12 849 25.07 -1 30.2 66 -6.6 20.1
03:15 1020 30.12 849 25.07 -0.9 30.4 65 -6.6 20.1
03:20 1020 30.12 849 25.07 -0.9 30.4 65 -6.6 20.1
03:25 1020 30.12 849 25.07 -0.9 30.4 65 -6.6 20.1
03:30 1020 30.12 849 25.07 -0.9 30.3 65 -6.6 20.1
03:35 1020 30.12 849 25.07 -1.1 30.1 66 -6.7 20
03:40 1020 30.12 849 25.07 -1.1 30 66 -6.7 19.9
03:45 1020 30.12 849 25.07 -1.1 30 66 -6.8 19.8
03:50 1020 30.12 849 25.07 -1.2 29.8 66 -6.8 19.7
03:55 1020 30.12 849 25.07 -1.2 29.8 66 -6.8 19.7
04:00 1020 30.12 849 25.07 -1.2 29.8 65 -6.9 19.5
04:05 1020 30.12 849 25.07 -1.3 29.7 65 -7 19.4
04:10 1020 30.12 849 25.07 -1.2 29.8 65 -7 19.3
04:15 1020 30.12 849 25.07 -1.3 29.6 65 -7 19.3
04:20 1020 30.12 849 25.07 -1.4 29.5 65 -7.1 19.2
04:25 1020 30.12 849 25.07 -1.4 29.5 65 -7.1 19.2
04:30 1020 30.12 849 25.07 -1.3 29.7 64 -7.2 19.1
04:35 1020 30.12 849 25.07 -1.2 29.8 64 -7.1 19.2
04:40 1020 30.12 849 25.07 -1.3 29.6 65 -7.2 19.1
04:45 1020 30.12 849 25.07 -1.4 29.4 65 -7.3 18.9
04:50 1020 30.12 849 25.07 -1.4 29.4 65 -7.2 19
04:55 1020 30.12 849 25.07 -1.5 29.3 65 -7.3 18.8
05:00 1020 30.12 849 25.07 -1.3 29.7 64 -7.3 18.9
05:05 1020 30.12 849 25.07 -1.1 30 64 -7.1 19.2
05:10 1020 30.12 849 25.07 -1.1 30 64 -7.1 19.3
05:15 1020 30.12 849 25.07 -1.1 30 64 -7.1 19.3
05:20 1020 30.12 849 25.07 -1.3 29.7 64 -7.2 19.1
05:25 1020 30.12 849 25.07 -1.3 29.6 64 -7.3 18.9
05:30 1020 30.12 849 25.07 -1.4 29.5 64 -7.2 19
05:35 1020 30.12 849 25.07 -1.5 29.3 64 -7.4 18.7
05:40 1020 30.12 849 25.07 -1.6 29.2 65 -7.4 18.7
05:45 1020 30.12 849 25.07 -1.7 28.9 65 -7.5 18.6
05:50 1020 30.12 849 25.07 -1.8 28.8 65 -7.5 18.5
05:55 1020 30.12 849 25.07 -1.9 28.5 65 -7.6 18.3
06:00 1020 30.12 849 25.07 -2 28.4 65 -7.6 18.3
06:05 1020 30.12 849 25.07 -1.9 28.6 65 -7.6 18.2
06:10 1020 30.12 849 25.07 -1.8 28.8 64 -7.7 18.1
06:15 1020 30.12 849 25.07 -1.8 28.8 64 -7.7 18.2
06:20 1020 30.12 849 25.07 -1.6 29.2 63 -7.7 18.2
06:25 1020 30.12 849 25.07 -1.4 29.5 63 -7.6 18.3
06:30 1020 30.12 849 25.07 -1.3 29.6 63 -7.5 18.5
06:35 1020 30.12 849 25.07 -1.9 28.6 65 -7.7 18.2
06:40 1020 30.12 849 25.07 -1.7 29 63 -7.9 17.9
06:45 1020 30.12 849 25.07 -1.1 30 61 -7.6 18.3
06:50 1020 30.12 849 25.07 -1.1 30 62 -7.5 18.5
06:55 1020 30.12 849 25.07 -1.2 29.9 62 -7.5 18.5
07:00 1020 30.12 849 25.07 -1.4 29.5 63 -7.5 18.5
07:05 1020 30.12 849 25.07 -1.6 29.2 64 -7.6 18.3
07:10 1020 30.12 849 25.07 -1.6 29.1 64 -7.7 18.2
07:15 1020 30.12 849 25.07 -1.5 29.2 63 -7.7 18.1
07:20 1020 30.12 849 25.07 -1.5 29.2 63 -7.7 18.1
07:25 1020 30.12 849 25.07 -1.5 29.2 63 -7.6 18.3
07:30 1020 30.12 849 25.07 -1.6 29.1 63 -7.7 18.2
07:35 1020 30.12 849 25.07 -1.7 28.9 63 -7.8 17.9
07:40 1020 30.12 849 25.07 -1.6 29.2 62 -7.8 17.9
07:45 1020 30.12 849 25.07 -1.4 29.5 62 -7.8 17.9
07:50 1020 30.12 849 25.07 -1.6 29 64 -7.6 18.3
07:55 1020 30.12 849 25.07 -1.6 29.2 63 -7.8 18
08:00 1020 30.12 849 25.07 -1.8 28.7 64 -7.7 18.1
08:05 1020 30.12 849 25.07 -2.3 27.9 65 -8 17.5
08:10 1020 30.12 849 25.07 -1.6 29.2 62 -7.9 17.8
08:15 1020 30.12 849 25.07 -1.4 29.5 62 -7.7 18.1
08:20 1020 30.12 849 25.07 -1.7 28.9 64 -7.7 18.2
08:25 1020 30.12 849 25.07 -2 28.4 65 -7.7 18.1
08:30 1020 30.12 849 25.07 -1.9 28.6 64 -7.8 18
08:35 1020 30.12 849 25.07 -1.7 29 64 -7.6 18.3
08:40 1020 30.12 849 25.07 -2.3 27.9 66 -7.8 18
08:45 1020 30.12 849 25.07 -2.3 27.8 65 -7.9 17.7
08:50 1020 30.12 849 25.07 -1.8 28.7 64 -7.8 17.9
08:55 1020 30.12 849 25.07 -1.8 28.8 64 -7.7 18.1
09:00 1020 30.12 849 25.07 -2.1 28.3 65 -7.7 18.2
09:05 1020 30.12 849 25.07 -2.1 28.3 63 -8.1 17.4
09:10 1020 30.12 849 25.07 -2 28.3 64 -7.9 17.8
09:15 1020 30.12 849 25.07 -2.1 28.2 64 -8 17.5
09:20 1020 30.12 849 25.07 -1.6 29.1 62 -7.9 17.8
09:25 1020 30.12 849 25.07 -1.3 29.7 61 -8 17.7
09:30 1020 30.12 849 25.07 -1.2 29.8 60 -7.9 17.8
09:35 1020 30.12 849 25.07 -1.2 29.9 61 -7.9 17.9
09:40 1020 30.12 849 25.07 -1.4 29.5 61 -7.9 17.8
09:45 1020 30.12 849 25.07 -1.3 29.6 61 -7.9 17.7
09:50 1020 30.12 849 25.07 -1.3 29.7 60 -8 17.6
09:55 1020 30.12 849 25.07 -1 30.2 59 -8 17.6
10:00 1020 30.12 849 25.07 -0.9 30.3 59 -7.9 17.7
10:05 1020 30.12 849 25.07 -0.7 30.7 59 -7.8 18
10:10 1020 30.12 849 25.07 -0.5 31.2 57 -8 17.6
10:15 1020 30.12 849 25.07 -0.1 31.9 56 -7.8 17.9
10:20 1020 30.12 849 25.07 0.1 32.2 56 -7.7 18.1
10:25 1020 30.12 849 25.07 0.5 33 54 -7.8 18
10:30 1020 30.12 849 25.07 0.9 33.6 53 -7.6 18.3
10:35 1020 30.12 849 25.07 0.7 33.2 54 -7.5 18.5
10:40 1020 30.12 849 25.07 0.9 33.6 53 -7.6 18.4
10:45 1020 30.12 849 25.07 1.1 34 53 -7.5 18.5
10:50 1020 30.12 849 25.07 1.5 34.8 52 -7.4 18.7
10:55 1020 30.12 849 25.07 1.8 35.2 51 -7.3 18.8
11:00 1020 30.12 849 25.07 2 35.5 50 -7.4 18.6
11:05 1020 30.12 849 25.07 2.4 36.3 50 -6.9 19.5
11:10 1020 30.12 849 25.07 2.2 35.9 51 -6.9 19.6
11:15 1020 30.12 849 25.07 2.1 35.8 50 -7.1 19.2
11:20 1020 30.12 850 25.1 2.3 36.1 51 -6.7 19.9
11:25 1020 30.12 850 25.1 2.2 35.9 51 -6.9 19.5
11:30 1020 30.12 850 25.1 2.4 36.3 51 -6.8 19.8
11:35 1020 30.12 850 25.1 2.7 36.9 49 -6.9 19.6
11:40 1020 30.12 850 25.1 3.1 37.6 48 -7 19.4
11:45 1020 30.12 850 25.1 3.2 37.8 49 -6.6 20.1
11:50 1020 30.12 850 25.1 3 37.5 48 -6.8 19.7
11:55 1020 30.12 849 25.07 3.1 37.7 48 -6.7 19.9
12:00 1020 30.12 849 25.07 3.4 38 47 -7 19.3
12:05 1020 30.12 849 25.07 3.9 39 45 -7.1 19.3
12:10 1020 30.12 849 25.07 4.2 39.6 46 -6.5 20.3
12:15 1020 30.12 849 25.07 3.8 38.8 47 -6.5 20.3
12:20 1020 30.12 849 25.07 3.6 38.5 46 -6.8 19.7
12:25 1020 30.12 849 25.07 3.5 38.3 48 -6.6 20.2
12:30 1020 30.12 849 25.07 3.8 38.8 47 -6.4 20.5
12:35 1020 30.12 849 25.07 4.1 39.4 47 -6.2 20.9
12:40 1020 30.12 849 25.07 4.4 39.9 47 -5.9 21.3
12:45 1020 30.12 849 25.07 4.9 40.8 49 -5 23
12:50 1020 30.12 849 25.07 5.1 41.2 46 -5.5 22
12:55 1020 30.12 849 25.07 5.3 41.6 45 -5.7 21.8
13:00 1020 30.12 849 25.07 5.3 41.5 48 -4.8 23.3
13:05 1020 30.12 849 25.07 4.8 40.7 47 -5.6 21.9
13:10 1020 30.12 849 25.07 4.8 40.6 50 -4.7 23.6
13:15 1020 30.12 849 25.07 4.7 40.5 48 -5.4 22.2
13:20 1020 30.12 849 25.07 4.3 39.7 49 -5.4 22.3
13:25 1020 30.12 849 25.07 4.3 39.8 49 -5.4 22.2
13:30 1020 30.12 849 25.07 4.4 39.8 48 -5.6 21.9
13:35 1020 30.12 849 25.07 4.2 39.5 51 -5.1 22.8
13:40 1019 30.09 849 25.07 3.6 38.5 52 -5.2 22.6
13:45 1019 30.09 849 25.07 3.3 37.9 53 -5.5 22.1
13:50 1019 30.09 849 25.07 3.1 37.6 54 -5.4 22.3
13:55 1019 30.09 849 25.07 2.8 37 54 -5.7 21.7
14:00 1019 30.09 849 25.07 2.7 36.9 52 -6.1 21
14:05 1019 30.09 849 25.07 2.9 37.2 49 -6.7 19.9
14:10 1019 30.09 849 25.07 3 37.5 50 -6.5 20.4
14:15 1019 30.09 848 25.04 3 37.5 51 -6.1 21
14:20 1019 30.09 848 25.04 2.7 36.9 53 -5.9 21.4
14:25 1019 30.09 848 25.04 2.8 37.1 50 -6.5 20.2
14:30 1019 30.09 848 25.04 3.2 37.8 48 -6.6 20.1
14:35 1019 30.09 848 25.04 3.8 38.8 47 -6.5 20.3
14:40 1019 30.09 848 25.04 3.8 38.9 49 -6 21.1
14:45 1019 30.09 848 25.04 3.8 38.8 49 -5.9 21.3
14:50 1019 30.09 848 25.04 3.7 38.7 49 -5.9 21.4
14:55 1019 30.09 848 25.04 3.9 39 49 -5.9 21.4
15:00 1019 30.09 848 25.04 4.1 39.3 50 -5.5 22.2
15:05 1019 30.09 848 25.04 4.2 39.5 48 -6 21.2
15:10 1019 30.09 848 25.04 4.5 40.1 47 -5.7 21.7
15:15 1019 30.09 848 25.04 5 41 45 -5.9 21.4
15:20 1019 30.09 848 25.04 5 41 47 -5.5 22.1
15:25 1019 30.09 848 25.04 4.9 40.9 47 -5.5 22
15:30 1019 30.09 848 25.04 5.1 41.2 47 -5.2 22.6
15:35 1019 30.09 848 25.04 5.1 41.2 47 -5.3 22.5
15:40 1019 30.09 848 25.04 5.3 41.6 46 -5.3 22.5
15:45 1019 30.09 848 25.04 5.4 41.7 48 -4.8 23.3
15:50 1019 30.09 848 25.04 5 41 50 -4.6 23.7
15:55 1019 30.09 848 25.04 4.5 40.1 51 -4.8 23.4
16:00 1019 30.09 848 25.04 4.4 40 50 -5.1 22.9
16:05 1019 30.09 848 25.04 4.6 40.3 49 -5.1 22.8
16:10 1019 30.09 848 25.04 5.1 41.2 47 -5.2 22.6
16:15 1019 30.09 848 25.04 5.4 41.7 48 -4.9 23.2
16:20 1019 30.09 848 25.04 5.2 41.3 48 -4.9 23.1
16:25 1019 30.09 848 25.04 4.6 40.4 50 -4.9 23.2
16:30 1019 30.09 848 25.04 4.2 39.6 50 -5.3 22.5
16:35 1019 30.09 848 25.04 4.1 39.4 50 -5.5 22.1
16:40 1019 30.09 848 25.04 4 39.2 50 -5.6 21.9
16:45 1019 30.09 848 25.04 3.6 38.5 52 -5.4 22.3
16:50 1019 30.09 848 25.04 3.1 37.6 54 -5.3 22.4
16:55 1019 30.09 848 25.04 2.9 37.3 53 -5.6 21.8
17:00 1019 30.09 848 25.04 3 37.4 54 -5.5 22.2
17:05 1019 30.09 848 25.04 3.1 37.5 54 -5.4 22.2
17:10 1019 30.09 848 25.04 3.1 37.5 54 -5.4 22.3
17:15 1019 30.09 848 25.04 3.1 37.5 54 -5.4 22.3
17:20 1019 30.09 848 25.04 2.9 37.2 55 -5.3 22.5
17:25 1019 30.09 848 25.04 2.6 36.6 56 -5.4 22.4
17:30 1019 30.09 848 25.04 2.3 36.2 57 -5.4 22.3
17:35 1019 30.09 848 25.04 2.1 35.8 58 -5.3 22.4
17:40 1019 30.09 848 25.04 2.1 35.8 58 -5.3 22.4
17:45 1019 30.09 848 25.04 2.2 36 56 -5.6 21.9
17:50 1019 30.09 848 25.04 2.6 36.6 55 -5.5 22.2
17:55 1019 30.09 848 25.04 2.5 36.5 56 -5.4 22.4
18:00 1018 30.06 848 25.04 2.3 36.1 56 -5.6 21.9
18:05 1019 30.09 848 25.04 2.1 35.9 56 -5.7 21.8
18:10 1019 30.09 848 25.04 2.1 35.8 56 -5.7 21.7
18:15 1019 30.09 848 25.04 1.9 35.4 55 -6.3 20.7
18:20 1019 30.09 848 25.04 1.9 35.4 55 -6.3 20.7
18:25 1019 30.09 848 25.04 1.9 35.4 55 -6.2 20.9
18:30 1019 30.09 848 25.04 1.7 35.1 54 -6.5 20.3
18:35 1019 30.09 848 25.04 1.7 35 54 -6.7 20
18:40 1019 30.09 848 25.04 1.8 35.2 55 -6.3 20.6
18:45 1019 30.09 848 25.04 1.6 34.8 57 -6.1 21
18:50 1019 30.09 848 25.04 1.2 34.2 59 -5.8 21.5
18:55 1019 30.09 848 25.04 1.1 33.9 60 -5.9 21.4
19:00 1019 30.09 848 25.04 1.3 34.3 60 -5.7 21.8
19:05 1019 30.09 848 25.04 1.3 34.4 60 -5.7 21.8
19:10 1019 30.09 848 25.04 1.1 33.9 60 -5.9 21.4
19:15 1019 30.09 848 25.04 1.4 34.5 58 -6 21.3
19:20 1019 30.09 848 25.04 1.8 35.3 56 -6 21.1
19:25 1019 30.09 848 25.04 2.1 35.7 56 -5.8 21.6
19:30 1019 30.09 848 25.04 1.8 35.2 58 -5.7 21.8
19:35 1019 30.09 848 25.04 1.5 34.7 58 -5.8 21.6
19:40 1019 30.09 848 25.04 1.4 34.5 59 -5.8 21.6
19:45 1019 30.09 848 25.04 1.3 34.4 60 -5.7 21.7
19:50 1019 30.09 848 25.04 1.2 34.1 60 -5.7 21.7
19:55 1019 30.09 848 25.04 0.9 33.6 61 -5.7 21.7
20:00 1019 30.09 848 25.04 0.8 33.4 62 -5.7 21.7
20:05 1019 30.09 848 25.04 0.6 33.2 63 -5.7 21.7
20:10 1019 30.09 848 25.04 0.4 32.7 64 -5.7 21.7
20:15 1019 30.09 849 25.07 0.5 33 62 -5.8 21.5
20:20 1019 30.09 849 25.07 0.8 33.4 60 -6.2 20.9
20:25 1019 30.09 848 25.04 1 33.9 60 -5.9 21.3
20:30 1019 30.09 849 25.07 0.7 33.3 61 -5.9 21.4
20:35 1019 30.09 849 25.07 0.5 32.9 61 -6.2 20.9
20:40 1019 30.09 849 25.07 0.2 32.4 61 -6.4 20.5
20:45 1019 30.09 849 25.07 0.1 32.2 61 -6.5 20.3
20:50 1019 30.09 849 25.07 -0.3 31.5 63 -6.5 20.3
20:55 1019 30.09 849 25.07 -0.5 31.2 64 -6.5 20.3
21:00 1020 30.12 849 25.07 -0.4 31.3 64 -6.5 20.4
21:05 1020 30.12 849 25.07 -0.6 31 64 -6.5 20.4
21:10 1020 30.12 849 25.07 -1 30.2 66 -6.5 20.4
21:15 1020 30.12 849 25.07 -0.8 30.5 66 -6.5 20.4
21:20 1020 30.12 849 25.07 -0.8 30.5 65 -6.6 20.1
21:25 1020 30.12 849 25.07 -0.7 30.8 63 -6.8 19.7
21:30 1020 30.12 849 25.07 -1 30.2 66 -6.6 20.2
21:35 1020 30.12 849 25.07 -1.5 29.3 68 -6.7 20
21:40 1020 30.12 849 25.07 -2.1 28.3 70 -6.9 19.6
21:45 1020 30.12 849 25.07 -2 28.4 68 -7.1 19.2
21:50 1020 30.12 849 25.07 -1.5 29.3 67 -6.8 19.8
21:55 1020 30.12 849 25.07 -1.3 29.6 67 -6.6 20.1
22:00 1020 30.12 849 25.07 -1 30.1 65 -6.8 19.7
22:05 1020 30.12 849 25.07 -0.1 31.8 61 -6.7 20
22:10 1020 30.12 849 25.07 0.4 32.7 59 -6.8 19.8
22:15 1020 30.12 849 25.07 0.1 32.2 62 -6.3 20.7
22:20 1020 30.12 849 25.07 -0.1 31.8 60 -6.9 19.7
22:25 1020 30.12 849 25.07 0.5 32.8 59 -6.6 20.2
22:30 1020 30.12 849 25.07 0.8 33.4 57 -6.7 19.9
22:35 1020 30.12 849 25.07 0.8 33.4 58 -6.6 20.2
22:40 1020 30.12 849 25.07 0.1 32.2 61 -6.5 20.4
22:45 1020 30.12 849 25.07 -0.6 31 63 -6.7 20
22:50 1020 30.12 849 25.07 -0.4 31.4 61 -6.9 19.6
22:55 1020 30.12 849 25.07 -0.1 31.9 62 -6.6 20.2
23:00 1020 30.12 849 25.07 0 32 60 -6.9 19.7
23:05 1020 30.12 849 25.07 0.2 32.4 60 -6.7 19.9
23:10 1020 30.12 849 25.07 0.1 32.1 60 -6.8 19.7
23:15 1020 30.12 849 25.07 0.2 32.4 59 -6.9 19.5
23:20 1020 30.12 849 25.07 0.4 32.7 60 -6.6 20.2
23:25 1020 30.12 849 25.07 0.2 32.3 60 -6.7 19.9
23:30 1020 30.12 849 25.07 -0.1 31.9 62 -6.5 20.3
23:35 1020 30.12 849 25.07 -0.6 30.9 64 -6.6 20.1
23:40 1020 30.12 849 25.07 -0.9 30.4 64 -6.8 19.8
23:45 1020 30.12 849 25.07 -0.9 30.3 64 -6.9 19.6
23:50 1020 30.12 849 25.07 -0.8 30.5 64 -6.8 19.7
23:55 1020 30.12 849 25.07 -0.5 31.1 62 -6.9 19.6
24:00 1020 30.12 849 25.07 -0 31.9 61 -6.8 19.8